Time;durP1;ratioP1;P1;durP2;ratioP2;P2;SDS_P1;SDS_P2;PMS_P1;PMS_P2;Temp;Humidity;BMP_temperature;BMP_pressure;BME280_temperature;BME280_humidity;BME280_pressure;Samples;Min_cycle;Max_cycle;Signal;HPM_P1;HPM_P2
2024/01/01 00:00:13;;;;;;;6.55;4.75;;;5.90;66.60;;;;;;5116367;27;20032;-77
2024/01/01 00:02:40;;;;;;;7.13;4.85;;;5.90;66.60;;;;;;5112439;28;20130;-75
2024/01/01 00:05:07;;;;;;;9.23;5.10;;;6.00;67.20;;;;;;5114116;28;20041;-74
2024/01/01 00:07:33;;;;;;;7.03;5.05;;;6.00;66.70;;;;;;5114114;27;20378;-77
2024/01/01 00:09:59;;;;;;;7.00;5.30;;;5.90;66.70;;;;;;5114745;28;20031;-76
2024/01/01 00:12:25;;;;;;;7.05;5.35;;;5.90;66.60;;;;;;5114053;28;20032;-78
2024/01/01 00:14:51;;;;;;;6.72;5.32;;;5.90;66.70;;;;;;5114353;28;20023;-77
2024/01/01 00:17:17;;;;;;;8.45;6.00;;;5.90;66.60;;;;;;5111548;28;20023;-74
2024/01/01 00:19:43;;;;;;;7.00;5.53;;;5.90;66.70;;;;;;5118215;28;20052;-76
2024/01/01 00:22:08;;;;;;;7.03;5.35;;;5.90;66.70;;;;;;5114253;28;20077;-74
2024/01/01 00:24:34;;;;;;;9.38;6.03;;;5.90;66.80;;;;;;5119702;28;20363;-76
2024/01/01 00:27:00;;;;;;;8.25;5.90;;;5.80;66.80;;;;;;5132160;28;20024;-74
2024/01/01 00:29:26;;;;;;;7.22;5.22;;;5.80;66.80;;;;;;5096004;28;20042;-72
2024/01/01 00:31:52;;;;;;;7.72;5.40;;;5.80;66.80;;;;;;5114014;28;20024;-76
2024/01/01 00:34:18;;;;;;;7.07;5.75;;;5.80;66.80;;;;;;5101259;27;20026;-80
2024/01/01 00:36:44;;;;;;;7.60;5.70;;;5.80;66.90;;;;;;5108996;28;20027;-75
2024/01/01 00:39:09;;;;;;;7.38;5.10;;;5.70;66.90;;;;;;5109864;27;20031;-75
2024/01/01 00:41:36;;;;;;;7.53;5.43;;;5.80;67.00;;;;;;5100537;27;20034;-76
2024/01/01 00:44:03;;;;;;;7.18;5.43;;;5.80;67.10;;;;;;5119750;27;20373;-77
2024/01/01 00:46:29;;;;;;;7.40;4.90;;;5.80;67.00;;;;;;5130000;27;20024;-76
2024/01/01 00:48:55;;;;;;;6.80;4.95;;;5.80;67.00;;;;;;5103943;28;20040;-76
2024/01/01 00:51:20;;;;;;;6.88;5.30;;;5.90;67.00;;;;;;5100961;27;20041;-75
2024/01/01 00:53:46;;;;;;;5.90;4.82;;;5.90;66.90;;;;;;5135444;27;20027;-76
2024/01/01 00:56:12;;;;;;;6.85;5.22;;;5.90;66.90;;;;;;5138634;27;20038;-76
2024/01/01 00:58:38;;;;;;;7.60;5.25;;;5.90;66.90;;;;;;5135579;27;20035;-75
2024/01/01 01:01:04;;;;;;;5.95;4.90;;;5.90;66.80;;;;;;5116281;28;20058;-75
2024/01/01 01:03:31;;;;;;;5.90;5.03;;;6.00;66.80;;;;;;5117201;28;20080;-76
2024/01/01 01:05:57;;;;;;;6.47;4.70;;;5.90;66.80;;;;;;5103572;28;20115;-75
2024/01/01 01:08:23;;;;;;;6.68;5.03;;;6.00;66.80;;;;;;5109003;28;20122;-75
2024/01/01 01:10:49;;;;;;;5.05;4.53;;;6.00;66.70;;;;;;5108736;28;20032;-75
2024/01/01 01:13:16;;;;;;;6.05;4.70;;;6.00;66.70;;;;;;5101609;28;20042;-75
2024/01/01 01:15:42;;;;;;;5.40;4.10;;;6.00;66.60;;;;;;5115980;28;20465;-75
2024/01/01 01:18:08;;;;;;;5.75;4.65;;;6.00;66.70;;;;;;5102220;28;20065;-76
2024/01/01 01:20:33;;;;;;;5.55;4.30;;;6.10;66.70;;;;;;5110326;28;20039;-74
2024/01/01 01:22:59;;;;;;;5.10;3.95;;;6.10;66.70;;;;;;5096048;28;20105;-76
2024/01/01 01:25:25;;;;;;;6.07;4.47;;;6.10;66.60;;;;;;5095542;28;20393;-76
2024/01/01 01:27:51;;;;;;;6.60;4.65;;;6.10;66.60;;;;;;5107648;28;20127;-75
2024/01/01 01:30:17;;;;;;;6.07;4.32;;;6.10;66.60;;;;;;5098075;28;20034;-76
2024/01/01 01:32:42;;;;;;;6.00;4.53;;;6.10;66.60;;;;;;5095598;28;20386;-76
2024/01/01 01:35:09;;;;;;;7.10;5.03;;;6.10;66.50;;;;;;5095304;28;20035;-77
2024/01/01 01:37:35;;;;;;;6.13;4.40;;;6.20;66.50;;;;;;5096595;28;20089;-75
2024/01/01 01:40:01;;;;;;;6.07;4.45;;;6.20;66.50;;;;;;5096899;28;20028;-76
2024/01/01 01:42:27;;;;;;;5.32;4.22;;;6.20;66.50;;;;;;5096274;28;20020;-75
2024/01/01 01:44:52;;;;;;;4.25;3.80;;;6.20;66.50;;;;;;5115279;28;20055;-75
2024/01/01 01:47:18;;;;;;;6.05;4.50;;;6.20;66.50;;;;;;5109297;28;20035;-76
2024/01/01 01:49:44;;;;;;;6.75;4.45;;;6.20;66.50;;;;;;5108346;28;20056;-75
2024/01/01 01:52:10;;;;;;;4.38;3.90;;;6.30;66.50;;;;;;5115481;28;20074;-75
2024/01/01 01:54:36;;;;;;;5.13;4.10;;;6.30;66.50;;;;;;5116933;28;20033;-75
2024/01/01 01:57:04;;;;;;;5.43;4.32;;;6.30;66.40;;;;;;5115420;28;20446;-75
2024/01/01 01:59:30;;;;;;;8.50;4.50;;;6.30;66.40;;;;;;5106527;27;20036;-75
2024/01/01 02:01:57;;;;;;;4.50;4.05;;;6.30;66.40;;;;;;5094749;28;20056;-76
2024/01/01 02:04:26;;;;;;;5.47;3.88;;;6.40;66.50;;;;;;5095317;28;20024;-75
2024/01/01 02:06:52;;;;;;;4.47;4.00;;;6.40;66.40;;;;;;5096196;28;20024;-75
2024/01/01 02:09:17;;;;;;;5.47;4.25;;;6.40;66.40;;;;;;5096159;28;20046;-75
2024/01/01 02:11:43;;;;;;;4.25;3.65;;;6.40;66.30;;;;;;5103993;28;20027;-76
2024/01/01 02:14:14;;;;;;;5.30;4.25;;;6.40;66.80;;;;;;5106382;28;20015;-76
2024/01/01 02:16:40;;;;;;;5.00;3.88;;;6.40;66.30;;;;;;5113691;28;20099;-75
2024/01/01 02:19:20;;;;;;;4.45;3.85;;;6.50;66.30;;;;;;5103583;28;20377;-75
2024/01/01 02:21:46;;;;;;;5.90;3.92;;;6.50;66.30;;;;;;5116498;28;20035;-75
2024/01/01 02:24:15;;;;;;;4.45;3.65;;;6.50;66.20;;;;;;5115006;28;20055;-75
2024/01/01 02:26:44;;;;;;;5.05;4.00;;;6.50;66.20;;;;;;5111812;28;20031;-76
2024/01/01 02:29:11;;;;;;;5.47;4.22;;;6.50;66.20;;;;;;5093800;28;20051;-75
2024/01/01 02:31:37;;;;;;;4.80;3.88;;;6.50;66.10;;;;;;5108257;28;20035;-76
2024/01/01 02:34:03;;;;;;;4.85;3.85;;;6.60;66.20;;;;;;5099903;28;20021;-76
2024/01/01 02:36:29;;;;;;;5.10;4.00;;;6.50;66.10;;;;;;5115955;28;20020;-75
2024/01/01 02:38:55;;;;;;;5.05;4.03;;;6.60;66.20;;;;;;5098946;28;20055;-76
2024/01/01 02:41:21;;;;;;;5.22;3.78;;;6.60;66.10;;;;;;5112778;28;20492;-76
2024/01/01 02:43:47;;;;;;;4.68;3.75;;;6.60;66.10;;;;;;5101566;28;20024;-75
2024/01/01 02:46:13;;;;;;;4.38;3.50;;;6.60;66.10;;;;;;5111696;28;20595;-76
2024/01/01 02:48:39;;;;;;;4.90;3.88;;;6.60;66.00;;;;;;5115239;28;20058;-76
2024/01/01 02:51:05;;;;;;;5.20;3.67;;;6.60;66.00;;;;;;5097543;28;20104;-75
2024/01/01 02:53:32;;;;;;;6.05;4.40;;;6.60;66.00;;;;;;5105473;28;20055;-76
2024/01/01 02:55:58;;;;;;;5.55;4.18;;;6.60;66.00;;;;;;5113899;28;20116;-76
2024/01/01 02:58:24;;;;;;;5.07;4.00;;;6.60;66.10;;;;;;5114546;28;20108;-75
2024/01/01 03:00:50;;;;;;;5.60;4.43;;;6.60;66.00;;;;;;5102538;27;20031;-75
2024/01/01 03:03:17;;;;;;;4.93;4.03;;;6.60;66.00;;;;;;5131914;27;20032;-75
2024/01/01 03:05:43;;;;;;;5.18;3.97;;;6.60;66.00;;;;;;5106493;28;20023;-76
2024/01/01 03:08:10;;;;;;;4.45;3.70;;;6.60;66.10;;;;;;5118929;27;20034;-75
2024/01/01 03:10:36;;;;;;;5.07;4.07;;;6.60;66.10;;;;;;5127578;27;20051;-75
2024/01/01 03:13:02;;;;;;;5.75;3.67;;;6.60;66.10;;;;;;5096938;28;20108;-77
2024/01/01 03:15:28;;;;;;;4.65;3.50;;;6.60;66.00;;;;;;5119716;27;20035;-75
2024/01/01 03:17:54;;;;;;;4.93;3.95;;;6.70;66.00;;;;;;5098684;27;20026;-76
2024/01/01 03:20:20;;;;;;;5.13;3.85;;;6.70;65.90;;;;;;5116545;27;20109;-76
2024/01/01 03:22:46;;;;;;;3.90;3.50;;;6.70;66.40;;;;;;5123546;27;20113;-75
2024/01/01 03:25:12;;;;;;;4.78;4.10;;;6.70;65.80;;;;;;5096750;28;20025;-76
2024/01/01 03:27:38;;;;;;;4.43;3.75;;;6.70;65.70;;;;;;5120238;27;20135;-75
2024/01/01 03:30:08;;;;;;;5.15;3.80;;;6.80;65.70;;;;;;5115184;27;20115;-75
2024/01/01 03:32:35;;;;;;;4.63;3.80;;;6.80;65.70;;;;;;5120982;27;20376;-76
2024/01/01 03:35:01;;;;;;;4.70;4.20;;;6.80;65.70;;;;;;5115752;27;20378;-75
2024/01/01 03:37:27;;;;;;;5.28;4.03;;;6.80;65.50;;;;;;5131094;27;20031;-76
2024/01/01 03:39:53;;;;;;;4.18;3.75;;;6.80;65.50;;;;;;5114806;28;20081;-76
2024/01/01 03:42:19;;;;;;;4.70;3.80;;;6.70;65.50;;;;;;5097566;28;20027;-75
2024/01/01 03:44:44;;;;;;;5.18;4.25;;;6.70;65.50;;;;;;5129426;27;20492;-76
2024/01/01 03:47:10;;;;;;;4.85;3.97;;;6.70;66.00;;;;;;5135028;27;20034;-75
2024/01/01 03:49:36;;;;;;;5.47;4.40;;;6.80;65.50;;;;;;5120739;27;20043;-76
2024/01/01 03:52:02;;;;;;;5.35;4.32;;;6.70;65.40;;;;;;5122976;28;20069;-75
2024/01/01 03:54:28;;;;;;;4.88;4.38;;;6.70;65.40;;;;;;5114480;28;20042;-76
2024/01/01 03:56:55;;;;;;;6.68;4.85;;;6.80;65.40;;;;;;5114746;28;20028;-76
2024/01/01 03:59:21;;;;;;;5.25;4.60;;;6.70;65.40;;;;;;5108371;27;20045;-75
2024/01/01 04:01:47;;;;;;;7.05;5.28;;;6.70;65.40;;;;;;5134920;27;20047;-75
2024/01/01 04:04:12;;;;;;;6.50;5.15;;;6.70;65.40;;;;;;5134325;27;20545;-76
2024/01/01 04:06:38;;;;;;;7.57;5.50;;;6.70;65.40;;;;;;5126248;27;20054;-75
2024/01/01 04:09:04;;;;;;;6.93;5.15;;;6.70;65.30;;;;;;5123308;27;20043;-77
2024/01/01 04:11:30;;;;;;;6.68;5.28;;;6.70;65.40;;;;;;5114570;27;20045;-76
2024/01/01 04:13:56;;;;;;;7.40;4.70;;;6.70;65.30;;;;;;5134731;28;20436;-75
2024/01/01 04:16:22;;;;;;;7.45;5.80;;;6.70;65.50;;;;;;5110756;28;20023;-77
2024/01/01 04:18:48;;;;;;;7.47;5.63;;;6.80;68.10;;;;;;5106184;28;20407;-74
2024/01/01 04:21:13;;;;;;;7.72;5.70;;;6.90;68.00;;;;;;5125679;28;20073;-75
2024/01/01 04:23:39;;;;;;;8.98;5.85;;;7.00;67.60;;;;;;5095649;28;20028;-76
2024/01/01 04:26:05;;;;;;;7.70;6.18;;;7.00;67.30;;;;;;5115281;28;20034;-75
2024/01/01 04:28:30;;;;;;;7.55;6.25;;;7.00;67.20;;;;;;5120978;28;20031;-76
2024/01/01 04:30:56;;;;;;;8.90;6.35;;;7.00;67.00;;;;;;5112337;28;20028;-76
2024/01/01 04:33:22;;;;;;;8.43;6.00;;;7.00;66.90;;;;;;5134445;28;20019;-75
2024/01/01 04:35:48;;;;;;;7.55;6.07;;;7.00;66.80;;;;;;5121782;27;20031;-74
2024/01/01 04:38:14;;;;;;;7.35;6.10;;;6.90;66.70;;;;;;5117450;28;20396;-75
2024/01/01 04:40:40;;;;;;;7.45;5.70;;;6.90;66.70;;;;;;5133665;27;20549;-76
2024/01/01 04:43:05;;;;;;;7.18;5.35;;;6.90;66.60;;;;;;5112849;28;20058;-75
2024/01/01 04:45:35;;;;;;;6.22;5.10;;;6.90;66.60;;;;;;5134575;28;20095;-75
2024/01/01 04:48:04;;;;;;;6.90;5.57;;;6.80;66.50;;;;;;5115977;28;20031;-77
2024/01/01 04:50:34;;;;;;;7.80;5.40;;;6.80;66.40;;;;;;5107825;28;20016;-75
2024/01/01 04:52:59;;;;;;;6.18;4.47;;;6.80;66.50;;;;;;5126192;28;20024;-77
2024/01/01 04:55:25;;;;;;;6.93;5.13;;;6.80;66.50;;;;;;5118460;28;20020;-75
2024/01/01 04:57:51;;;;;;;6.30;4.70;;;6.80;66.40;;;;;;5114117;28;20032;-76
2024/01/01 05:00:17;;;;;;;6.90;4.93;;;6.80;66.40;;;;;;5123831;28;20056;-77
2024/01/01 05:02:43;;;;;;;6.20;4.47;;;6.80;66.40;;;;;;5113586;28;20122;-75
2024/01/01 05:05:08;;;;;;;6.20;4.68;;;6.80;66.40;;;;;;5113672;28;20039;-76
2024/01/01 05:07:36;;;;;;;7.57;4.75;;;6.80;66.40;;;;;;5105426;27;20027;-75
2024/01/01 05:10:02;;;;;;;6.97;4.95;;;6.80;66.30;;;;;;5119264;28;20107;-75
2024/01/01 05:12:28;;;;;;;5.75;4.82;;;6.80;66.30;;;;;;5095495;28;20076;-76
2024/01/01 05:14:54;;;;;;;7.38;5.22;;;6.80;66.30;;;;;;5124863;28;20102;-78
2024/01/01 05:17:19;;;;;;;7.65;6.03;;;6.80;66.30;;;;;;5132751;28;20027;-77
2024/01/01 05:19:46;;;;;;;8.85;7.03;;;6.70;66.20;;;;;;5132397;27;20052;-77
2024/01/01 05:22:12;;;;;;;8.68;6.78;;;6.80;66.20;;;;;;5118393;27;20031;-75
2024/01/01 05:24:37;;;;;;;10.20;7.30;;;6.70;66.20;;;;;;5137902;27;20370;-75
2024/01/01 05:27:03;;;;;;;9.63;7.03;;;6.70;66.20;;;;;;5119074;27;20072;-76
2024/01/01 05:29:31;;;;;;;10.82;7.28;;;6.70;66.20;;;;;;5133430;27;20220;-76
2024/01/01 05:31:57;;;;;;;8.90;6.57;;;6.70;66.10;;;;;;5128842;27;20023;-77
2024/01/01 05:34:24;;;;;;;9.70;6.93;;;6.70;66.10;;;;;;5109887;27;20035;-75
2024/01/01 05:36:49;;;;;;;10.05;6.72;;;6.70;66.10;;;;;;5136660;27;20130;-77
2024/01/01 05:39:15;;;;;;;9.00;6.40;;;6.70;66.10;;;;;;5129999;27;20477;-76
2024/01/01 05:41:41;;;;;;;9.02;5.88;;;6.70;66.10;;;;;;5117123;28;20086;-76
2024/01/01 05:44:06;;;;;;;8.43;6.20;;;6.70;66.10;;;;;;5098651;28;20023;-76
2024/01/01 05:46:32;;;;;;;8.55;6.13;;;6.70;66.10;;;;;;5116640;28;20035;-77
2024/01/01 05:48:59;;;;;;;8.10;5.75;;;6.70;66.10;;;;;;5129291;27;20039;-78
2024/01/01 05:51:24;;;;;;;6.78;5.28;;;6.70;66.10;;;;;;5102073;28;20028;-75
2024/01/01 05:53:50;;;;;;;7.20;5.30;;;6.70;66.10;;;;;;5107055;28;20483;-74
2024/01/01 05:56:16;;;;;;;6.43;4.95;;;6.70;66.10;;;;;;5102959;27;20023;-79
2024/01/01 05:58:42;;;;;;;7.28;5.00;;;6.70;66.00;;;;;;5137781;27;20469;-75
2024/01/01 06:01:08;;;;;;;7.20;5.25;;;6.80;66.10;;;;;;5137036;27;20055;-76
2024/01/01 06:03:33;;;;;;;6.43;5.05;;;6.80;66.10;;;;;;5136590;27;20487;-75
2024/01/01 06:05:59;;;;;;;7.50;5.50;;;6.80;66.00;;;;;;5116245;27;20031;-76
2024/01/01 06:08:25;;;;;;;8.38;6.07;;;6.80;66.00;;;;;;5105172;27;20118;-75
2024/01/01 06:10:51;;;;;;;7.47;5.57;;;6.80;66.00;;;;;;5111618;28;20024;-75
2024/01/01 06:13:17;;;;;;;8.80;6.13;;;6.80;66.00;;;;;;5127207;27;20035;-75
2024/01/01 06:15:43;;;;;;;8.52;5.60;;;6.80;66.00;;;;;;5118607;27;20042;-75
2024/01/01 06:18:09;;;;;;;8.45;6.25;;;6.80;65.90;;;;;;5132275;27;20061;-78
2024/01/01 06:20:35;;;;;;;8.70;5.95;;;6.90;66.00;;;;;;5117561;27;20031;-74
2024/01/01 06:23:02;;;;;;;7.18;5.63;;;6.90;65.90;;;;;;5127302;27;20106;-75
2024/01/01 06:25:28;;;;;;;8.27;5.80;;;6.90;65.90;;;;;;5106258;27;20030;-76
2024/01/01 06:27:54;;;;;;;8.82;6.15;;;6.90;65.80;;;;;;5099263;28;20039;-76
2024/01/01 06:30:20;;;;;;;8.63;5.82;;;6.90;65.80;;;;;;5125625;27;20028;-76
2024/01/01 06:32:46;;;;;;;8.02;5.88;;;7.00;65.80;;;;;;5129235;27;20110;-78
2024/01/01 06:35:12;;;;;;;8.45;6.30;;;7.00;65.90;;;;;;5134385;27;20110;-76
2024/01/01 06:37:38;;;;;;;7.95;6.07;;;7.00;65.80;;;;;;5117715;27;20030;-76
2024/01/01 06:40:06;;;;;;;7.97;6.35;;;7.00;65.80;;;;;;5132240;27;20031;-75
2024/01/01 06:42:32;;;;;;;8.25;6.05;;;7.00;65.80;;;;;;5131530;27;20038;-76
2024/01/01 06:45:00;;;;;;;8.15;5.82;;;7.10;65.90;;;;;;5121934;27;20023;-76
2024/01/01 06:47:26;;;;;;;7.40;5.95;;;7.10;65.80;;;;;;5115218;28;20027;-77
2024/01/01 06:49:52;;;;;;;7.65;5.95;;;7.10;65.80;;;;;;5128491;27;20031;-74
2024/01/01 06:52:18;;;;;;;9.00;6.25;;;7.10;65.80;;;;;;5135074;27;20038;-77
2024/01/01 06:54:44;;;;;;;8.80;5.75;;;7.10;65.80;;;;;;5107203;27;20023;-76
2024/01/01 06:57:09;;;;;;;8.38;6.15;;;7.10;65.80;;;;;;5120799;27;20031;-75
2024/01/01 06:59:36;;;;;;;7.78;5.78;;;7.10;65.70;;;;;;5105280;27;20033;-76
2024/01/01 07:02:02;;;;;;;10.00;6.50;;;7.10;65.80;;;;;;5125499;27;20050;-77
2024/01/01 07:04:28;;;;;;;8.27;6.30;;;7.10;65.70;;;;;;5115173;27;20023;-75
2024/01/01 07:06:53;;;;;;;7.95;6.28;;;7.10;65.70;;;;;;5117613;27;20391;-75
2024/01/01 07:09:19;;;;;;;8.23;5.97;;;7.10;65.70;;;;;;5103952;27;20081;-76
2024/01/01 07:11:45;;;;;;;7.97;5.93;;;7.20;65.70;;;;;;5120246;27;20027;-78
2024/01/01 07:14:11;;;;;;;6.55;5.55;;;7.20;65.70;;;;;;5125714;27;20071;-78
2024/01/01 07:16:37;;;;;;;7.95;5.40;;;7.20;65.70;;;;;;5098027;28;20434;-73
2024/01/01 07:19:02;;;;;;;7.07;5.20;;;7.20;65.70;;;;;;5115085;28;20405;-73
2024/01/01 07:21:28;;;;;;;7.35;5.65;;;7.30;65.70;;;;;;5106341;28;20460;-77
2024/01/01 07:23:54;;;;;;;7.32;5.50;;;7.30;65.70;;;;;;5113781;28;20020;-80
2024/01/01 07:26:20;;;;;;;7.00;5.45;;;7.30;65.70;;;;;;5106989;27;20031;-74
2024/01/01 07:28:46;;;;;;;6.70;5.25;;;7.30;65.60;;;;;;5132865;27;20435;-79
2024/01/01 07:31:12;;;;;;;7.85;5.32;;;7.40;65.70;;;;;;5096549;28;20020;-77
2024/01/01 07:33:38;;;;;;;7.85;5.43;;;7.40;65.60;;;;;;5115089;27;20466;-76
2024/01/01 07:36:08;;;;;;;8.13;5.95;;;7.40;65.60;;;;;;5097043;28;20107;-76
2024/01/01 07:38:34;;;;;;;6.78;5.18;;;7.50;66.10;;;;;;5096626;28;20034;-76
2024/01/01 07:41:00;;;;;;;6.63;5.25;;;7.50;65.50;;;;;;5118270;27;20019;-79
2024/01/01 07:43:27;;;;;;;6.95;5.57;;;7.50;65.50;;;;;;5105374;28;20020;-79
2024/01/01 07:45:52;;;;;;;8.38;5.47;;;7.60;65.50;;;;;;5114437;28;20024;-77
2024/01/01 07:48:18;;;;;;;6.10;5.22;;;7.60;65.40;;;;;;5103135;28;20542;-79
2024/01/01 07:50:44;;;;;;;7.22;5.18;;;7.70;65.40;;;;;;5134959;27;20027;-77
2024/01/01 07:53:10;;;;;;;5.93;4.75;;;7.70;65.40;;;;;;5135015;27;20055;-78
2024/01/01 07:55:36;;;;;;;6.38;5.22;;;7.70;65.40;;;;;;5135217;27;20447;-79
2024/01/01 07:58:02;;;;;;;6.93;4.68;;;7.80;65.40;;;;;;5116333;27;20038;-77
2024/01/01 08:00:28;;;;;;;5.97;5.13;;;7.70;65.40;;;;;;5119609;27;20036;-78
2024/01/01 08:02:54;;;;;;;7.30;5.22;;;7.70;65.30;;;;;;5133662;27;20051;-80
2024/01/01 08:05:19;;;;;;;6.85;5.20;;;7.80;65.40;;;;;;5117136;27;20027;-79
2024/01/01 08:07:48;;;;;;;7.47;5.20;;;7.80;65.40;;;;;;5119226;28;20042;-78
2024/01/01 08:10:15;;;;;;;6.00;4.72;;;7.80;65.30;;;;;;5109827;28;20464;-81
2024/01/01 08:12:41;;;;;;;6.60;4.78;;;7.80;65.30;;;;;;5113879;28;20080;-78
2024/01/01 08:15:07;;;;;;;6.88;5.22;;;7.80;65.30;;;;;;5112754;28;20102;-77
2024/01/01 08:17:33;;;;;;;6.53;4.85;;;7.90;65.30;;;;;;5123367;28;20035;-75
2024/01/01 08:20:00;;;;;;;6.85;4.95;;;7.90;65.30;;;;;;5116535;28;20027;-82
2024/01/01 08:22:26;;;;;;;6.90;5.30;;;7.90;65.30;;;;;;5135613;28;20059;-80
2024/01/01 08:24:52;;;;;;;6.32;4.90;;;7.90;65.30;;;;;;5116847;28;20023;-82
2024/01/01 08:27:17;;;;;;;5.35;4.35;;;8.00;65.30;;;;;;5116402;28;20030;-80
2024/01/01 08:29:43;;;;;;;6.47;5.00;;;8.00;65.30;;;;;;5120628;28;20047;-80
2024/01/01 08:32:09;;;;;;;5.75;4.65;;;8.00;65.30;;;;;;5114409;28;20024;-77
2024/01/01 08:34:35;;;;;;;5.65;4.30;;;8.00;65.30;;;;;;5110747;28;20462;-77
2024/01/01 08:37:04;;;;;;;5.20;4.43;;;8.10;65.40;;;;;;5114723;28;20417;-77
2024/01/01 08:39:29;;;;;;;5.05;4.28;;;8.10;65.40;;;;;;5113841;28;20032;-75
2024/01/01 08:41:55;;;;;;;6.03;4.40;;;8.10;65.30;;;;;;5113895;28;20076;-79
2024/01/01 08:44:21;;;;;;;5.03;4.13;;;8.20;65.30;;;;;;5112816;28;20035;-78
2024/01/01 08:46:47;;;;;;;5.85;4.30;;;8.20;65.30;;;;;;5113486;28;20019;-78
2024/01/01 08:49:12;;;;;;;5.30;4.47;;;8.20;65.30;;;;;;5097137;28;20035;-79
2024/01/01 08:51:38;;;;;;;5.40;4.20;;;8.30;65.30;;;;;;5111249;28;20038;-76
2024/01/01 08:54:07;;;;;;;4.20;3.70;;;8.30;65.30;;;;;;5117806;27;20038;-74
2024/01/01 08:56:33;;;;;;;6.20;4.82;;;8.30;65.20;;;;;;5137759;27;20354;-76
2024/01/01 08:58:59;;;;;;;5.63;4.47;;;8.40;65.20;;;;;;5101802;27;20032;-78
2024/01/01 09:01:25;;;;;;;6.57;4.65;;;8.40;65.10;;;;;;5119851;27;20457;-75
2024/01/01 09:03:51;;;;;;;6.28;4.60;;;8.40;65.10;;;;;;5138708;27;20087;-77
2024/01/01 09:06:17;;;;;;;5.57;4.47;;;8.50;65.10;;;;;;5136182;27;20106;-77
2024/01/01 09:08:43;;;;;;;5.50;4.50;;;8.50;65.10;;;;;;5138110;27;20046;-76
2024/01/01 09:11:09;;;;;;;5.40;4.50;;;8.60;65.10;;;;;;5119690;27;20035;-77
2024/01/01 09:13:35;;;;;;;5.10;4.05;;;8.60;65.10;;;;;;5115448;27;20031;-77
2024/01/01 09:16:02;;;;;;;5.65;4.55;;;8.60;65.00;;;;;;5138523;27;20031;-81
2024/01/01 09:18:28;;;;;;;5.47;4.38;;;8.70;65.10;;;;;;5121782;27;20082;-83
2024/01/01 09:20:54;;;;;;;5.38;3.90;;;8.70;65.00;;;;;;5129025;27;20027;-84
2024/01/01 09:23:19;;;;;;;5.53;4.30;;;8.70;65.00;;;;;;5145554;27;20027;-85
2024/01/01 09:25:46;;;;;;;4.70;3.85;;;8.80;65.00;;;;;;5141946;27;20156;-78
2024/01/01 09:28:12;;;;;;;5.40;3.95;;;8.80;65.00;;;;;;5138270;27;20034;-77
2024/01/01 09:30:38;;;;;;;5.03;4.03;;;8.80;65.00;;;;;;5138170;27;20027;-81
2024/01/01 09:33:03;;;;;;;5.60;4.28;;;8.90;65.10;;;;;;5137951;27;20029;-79
2024/01/01 09:35:29;;;;;;;5.00;4.25;;;8.80;65.00;;;;;;5139105;27;20035;-81
2024/01/01 09:37:56;;;;;;;5.05;4.07;;;8.90;65.00;;;;;;5116329;27;20038;-77
2024/01/01 09:40:22;;;;;;;5.22;4.30;;;8.90;65.00;;;;;;5112651;27;20024;-79
2024/01/01 09:42:48;;;;;;;4.93;3.97;;;8.90;65.00;;;;;;5110180;27;20087;-80
2024/01/01 09:45:14;;;;;;;4.90;4.13;;;8.90;65.00;;;;;;5120078;27;20023;-82
2024/01/01 09:47:40;;;;;;;5.38;4.30;;;8.90;65.00;;;;;;5114601;27;20100;-80
2024/01/01 09:50:07;;;;;;;4.80;4.15;;;9.00;65.10;;;;;;5129234;27;20046;-78
2024/01/01 09:52:33;;;;;;;5.20;3.72;;;9.00;65.00;;;;;;5119341;27;20106;-85
2024/01/01 09:54:59;;;;;;;5.18;3.92;;;9.00;65.00;;;;;;5104336;27;20036;-78
2024/01/01 09:57:26;;;;;;;5.10;4.13;;;9.00;65.00;;;;;;5109218;28;20051;-80
2024/01/01 09:59:52;;;;;;;5.78;4.28;;;9.00;64.90;;;;;;5132637;27;20027;-80
2024/01/01 10:02:23;;;;;;;4.35;3.58;;;9.10;65.00;;;;;;5120421;27;20433;-85
2024/01/01 10:04:49;;;;;;;4.95;4.18;;;9.10;65.00;;;;;;5104050;28;20112;-85
2024/01/01 10:07:28;;;;;;;4.93;4.18;;;9.10;65.00;;;;;;5121299;27;20027;-81
2024/01/01 10:09:54;;;;;;;4.53;3.78;;;9.10;65.00;;;;;;5116266;27;20035;-88
2024/01/01 10:12:23;;;;;;;4.47;3.83;;;9.20;64.90;;;;;;5119805;27;20030;-82
2024/01/01 10:14:50;;;;;;;5.18;4.10;;;9.20;64.90;;;;;;5118609;27;20027;-79
2024/01/01 10:17:17;;;;;;;5.00;4.05;;;9.20;64.90;;;;;;5118262;27;20030;-79
2024/01/01 10:19:59;;;;;;;4.75;3.70;;;9.20;64.80;;;;;;5118632;27;20054;-79
2024/01/01 10:22:30;;;;;;;5.22;4.07;;;9.30;64.90;;;;;;5136393;27;20592;-85
2024/01/01 10:25:13;;;;;;;4.63;4.00;;;9.20;64.80;;;;;;5120371;27;20023;-81
2024/01/01 10:27:41;;;;;;;5.25;4.22;;;9.30;64.90;;;;;;5131791;27;20031;-75
2024/01/01 10:30:07;;;;;;;4.43;3.53;;;9.20;64.80;;;;;;5126794;27;20027;-77
2024/01/01 10:32:34;;;;;;;4.03;3.60;;;9.30;64.80;;;;;;5097872;28;20092;-77
2024/01/01 10:35:03;;;;;;;4.68;3.72;;;9.30;64.80;;;;;;5100496;27;20035;-79
2024/01/01 10:37:30;;;;;;;4.60;3.80;;;9.20;64.80;;;;;;5133872;27;20114;-77
2024/01/01 10:40:04;;;;;;;4.40;3.60;;;9.20;64.80;;;;;;5123526;27;20085;-82
2024/01/01 10:42:33;;;;;;;5.53;4.03;;;9.20;65.00;;;;;;5097989;28;20034;-85
2024/01/01 10:45:05;;;;;;;4.57;3.90;;;9.20;65.30;;;;;;5112006;28;20028;-79
2024/01/01 10:47:31;;;;;;;5.32;4.30;;;9.20;65.40;;;;;;5097928;27;20481;-79
2024/01/01 10:50:26;;;;;;;5.72;4.07;;;9.20;65.40;;;;;;5094968;28;20032;-82
2024/01/01 10:53:14;;;;;;;6.68;4.18;;;9.20;65.90;;;;;;5100902;27;20107;-83
2024/01/01 10:55:57;;;;;;;4.05;3.63;;;9.30;66.30;;;;;;5112046;28;20027;-83
2024/01/01 10:58:35;;;;;;;5.00;4.50;;;9.30;66.40;;;;;;5117909;27;20380;-84
2024/01/01 11:01:13;;;;;;;68.35;47.60;;;9.30;66.40;;;;;;5137009;27;20047;-78
2024/01/01 11:03:46;;;;;;;108.85;92.13;;;9.30;66.50;;;;;;5115030;28;20031;-78
2024/01/01 11:06:26;;;;;;;104.47;84.32;;;9.30;66.80;;;;;;5111520;27;20034;-76
2024/01/01 11:08:56;;;;;;;100.25;81.35;;;9.30;66.80;;;;;;5112919;27;20034;-78
2024/01/01 11:11:32;;;;;;;110.30;90.47;;;9.30;66.80;;;;;;5125799;27;20026;-77
2024/01/01 11:14:00;;;;;;;79.60;64.15;;;9.30;66.80;;;;;;5120240;27;20479;-79
2024/01/01 11:16:26;;;;;;;61.83;49.25;;;9.30;66.80;;;;;;5115803;27;20469;-77
2024/01/01 11:18:52;;;;;;;53.72;41.35;;;9.30;66.70;;;;;;5133822;27;20027;-76
2024/01/01 11:21:36;;;;;;;43.55;34.50;;;9.30;66.60;;;;;;5135456;27;20031;-77
2024/01/01 11:24:03;;;;;;;37.72;29.98;;;9.30;66.60;;;;;;5136030;27;20038;-78
2024/01/01 11:26:35;;;;;;;31.75;25.30;;;9.30;66.60;;;;;;5135253;27;20083;-80
2024/01/01 11:29:06;;;;;;;22.67;17.98;;;9.30;66.50;;;;;;5135315;27;20074;-77
2024/01/01 11:31:34;;;;;;;16.92;13.55;;;9.20;66.50;;;;;;5117025;27;20181;-77
2024/01/01 11:34:00;;;;;;;16.77;13.00;;;9.20;66.40;;;;;;5116886;27;20023;-78
2024/01/01 11:36:29;;;;;;;10.52;8.27;;;9.30;66.50;;;;;;5117086;27;20521;-76
2024/01/01 11:38:56;;;;;;;9.73;7.82;;;9.20;66.40;;;;;;5135514;27;20038;-78
2024/01/01 11:41:29;;;;;;;7.97;5.93;;;9.20;66.40;;;;;;5116599;27;20080;-77
2024/01/01 11:44:07;;;;;;;5.57;4.38;;;9.20;66.30;;;;;;5135487;27;20043;-77
2024/01/01 11:46:33;;;;;;;5.07;4.18;;;9.20;66.40;;;;;;5116704;27;20110;-77
2024/01/01 11:49:00;;;;;;;4.47;3.78;;;9.20;66.30;;;;;;5135044;27;20176;-77
2024/01/01 11:51:30;;;;;;;4.50;3.78;;;9.20;66.40;;;;;;5135524;27;20019;-78
2024/01/01 11:54:06;;;;;;;3.65;3.22;;;9.20;66.40;;;;;;5116665;27;20029;-77
2024/01/01 11:56:33;;;;;;;4.10;3.60;;;9.20;66.30;;;;;;5116688;27;20031;-77
2024/01/01 11:58:59;;;;;;;3.60;3.30;;;9.20;66.40;;;;;;5116608;27;20063;-76
2024/01/01 12:01:26;;;;;;;4.05;3.55;;;9.20;66.50;;;;;;5134993;27;20130;-77
2024/01/01 12:03:52;;;;;;;4.35;3.40;;;9.10;66.50;;;;;;5116625;27;20113;-75
2024/01/01 12:06:18;;;;;;;4.43;3.30;;;9.20;66.50;;;;;;5134959;27;20077;-77
2024/01/01 12:08:44;;;;;;;3.90;3.50;;;9.20;66.60;;;;;;5135203;28;20035;-77
2024/01/01 12:11:17;;;;;;;4.22;3.65;;;9.20;66.60;;;;;;5134865;27;20023;-76
2024/01/01 12:13:54;;;;;;;4.80;3.88;;;9.20;66.60;;;;;;5135120;27;20023;-77
2024/01/01 12:16:20;;;;;;;4.82;3.70;;;9.20;66.70;;;;;;5134826;27;20032;-77
2024/01/01 12:18:46;;;;;;;3.80;3.20;;;9.20;66.80;;;;;;5134537;28;20023;-76
2024/01/01 12:21:12;;;;;;;4.40;3.72;;;9.20;66.80;;;;;;5116144;28;20027;-78
2024/01/01 12:23:38;;;;;;;4.32;3.75;;;9.20;66.80;;;;;;5134518;28;20031;-77
2024/01/01 12:26:04;;;;;;;3.70;3.30;;;9.20;66.80;;;;;;5116352;28;20034;-77
2024/01/01 12:28:30;;;;;;;4.53;3.85;;;9.20;66.80;;;;;;5136001;27;20035;-77
2024/01/01 12:30:59;;;;;;;4.32;3.47;;;9.30;66.80;;;;;;5120391;27;20034;-77
2024/01/01 12:33:25;;;;;;;4.18;3.65;;;9.20;66.80;;;;;;5120528;27;20027;-76
2024/01/01 12:35:50;;;;;;;4.18;3.72;;;9.30;66.90;;;;;;5120304;27;20034;-77
2024/01/01 12:38:16;;;;;;;4.28;3.55;;;9.30;66.90;;;;;;5120367;27;20027;-75
2024/01/01 12:40:42;;;;;;;4.85;4.10;;;9.20;66.90;;;;;;5139019;27;20035;-76
2024/01/01 12:43:08;;;;;;;3.88;3.47;;;9.20;67.00;;;;;;5120379;27;20038;-77
2024/01/01 12:45:34;;;;;;;4.20;3.72;;;9.20;67.00;;;;;;5120328;27;20526;-77
2024/01/01 12:48:00;;;;;;;4.78;3.80;;;9.20;67.10;;;;;;5138598;27;20027;-76
2024/01/01 12:50:26;;;;;;;4.97;4.13;;;9.10;67.10;;;;;;5138634;27;20338;-76
2024/01/01 12:52:52;;;;;;;5.00;4.10;;;9.10;67.20;;;;;;5138367;27;20024;-77